AirNav   Air Wisconsin Up To $57,000 Bonus
 
 367 users online  

16FA Little Deer Airport
Ochopee, Florida, USA

GOING TO OCHOPEE?


FAA INFORMATION EFFECTIVE 22 APRIL 2021

Location

FAA Identifier: 16FA
Lat/Long: 26-01-51.3310N 081-02-19.2490W
26-01.855517N 081-02.320817W
26.0309253,-81.0386803
(estimated)
Elevation: 14 ft. / 4.3 m (surveyed)
Variation: 02W (1985)
From city: 17 miles NE of OCHOPEE, FL
Time zone: UTC -4 (UTC -5 during Standard Time)
Zip code: 34141

Airport Operations

Airport use: Private use. Permission required prior to landing
Activation date: 02/1976
Control tower: no
ARTCC: MIAMI CENTER
FSS: MIAMI FLIGHT SERVICE STATION
Attendance: UNATNDD
Wind indicator: yes
Segmented circle: no

Airport Communications

WX AWOS-3 at TNT (13 nm SE): 119.075 ((239) 695-9198)

Nearby radio navigation aids

VOR radial/distance  VOR name  Freq  Var
DHPr294/39.7DOLPHIN VORTAC113.9004W

Airport Services

Runway Information

Runway 12/30

Dimensions: 2680 x 200 ft. / 817 x 61 m
Surface: turf
RUNWAY 12  RUNWAY 30
Traffic pattern: leftleft
Obstructions: trees, 300 ft. from runwaytrees, 300 ft. from runway

Airport Ownership and Management from official FAA records

Ownership: Privately-owned
Owner: LITTLE DEER HUNTING CLUB, INC
23600 SW 162 AVENUE
HOMESTEAD, FL 33031
Phone (305) 345-2656
ATTENTION: H. AMOON
Manager: CHARLES P MUNZ
23600 SW 162 AVENUE
HOMESTEAD, FL 33031
Phone 305-345-2656

Additional Remarks

FOR CD CTC MIAMI ARTCC AT 305-716-1731.

Instrument Procedures

There are no published instrument procedures at 16FA.

Some nearby airports with instrument procedures:

KTNT - Dade-Collier Training and Transition Airport (13 nm SE)
KIMM - Immokalee Regional Airport (31 nm NW)
KMKY - Marco Island Executive Airport (34 nm W)
KTMB - Miami Executive Airport (40 nm SE)
KAPF - Naples Municipal Airport (40 nm W)
 
Loc | Ops | Rwys | IFR | FBO | Links
Com | Nav | Svcs | Stats | Notes


 
Area around 16FA (Little Deer Airport)
 
Road maps at: MapQuest Bing Google
 
Aerial photo
No photo
 
Sectional chart

 
Airport distance calculator
Flying to Little Deer Airport? Find the distance to fly.

From to 16FA

Sunrise and sunset
Times for 11-May-2021
 Local
(UTC-4)
 Zulu
(UTC)
Morning civil twilight06:1610:16
Sunrise06:4110:41
Sunset20:0024:00
Evening civil twilight20:2500:25

Current date and time
Zulu (UTC)  11-May-2021 08:12:04
Local (UTC-4)  11-May-2021 04:12:04
 
METAR
KIMM 
31nm NW 
110755Z AUTO 00000KT 10SM SCT044 BKN050 OVC075 20/19 A3004 RMK AO2 PWINO
KMKY 
34nm W 
110756Z AUTO 13004KT 10SM CLR 23/21 A3004 RMK AO2 SLP173 T02280211 TSNO $
KAPF 
40nm W 
110753Z AUTO 10003KT 10SM CLR 24/22 A3003 RMK AO2 SLP167 T02440217
KTMB 
40nm SE 
110753Z AUTO 01003KT 10SM CLR 23/21 A3003 RMK AO2 SLP168 T02280211
KOPF 
41nm E 
110753Z AUTO 00000KT 10SM CLR 24/21 A3004 RMK AO2 SLP172 T02440211
KMIA 
42nm E 
110753Z 00000KT 10SM FEW025 25/22 A3003 RMK AO2 SLP169 T02500222 $
K2IS 
42nm N 
110755Z AUTO 16004KT 10SM CLR 21/20 A3005 RMK AO2 T02080201
KHWO 
43nm E 
110753Z AUTO 00000KT 10SM CLR 24/22 A3005 RMK AO2 SLP175 T02390217
KFXE 
47nm E 
110753Z AUTO 00000KT 10SM FEW049 25/22 A3004 RMK AO2 SLP173 T02500222 TSNO
KFLL 
48nm E 
110753Z 33003KT 10SM FEW200 25/23 A3003 RMK AO2 SLP168 T02500233
TAF
KAPF 
40nm W 
110530Z 1106/1206 VRB04KT P6SM SCT020 FM111400 14006KT P6SM SCT025 FM111700 24012KT P6SM SCT025 BKN050 FM120000 VRB04KT P6SM SCT030 BKN050
KTMB 
40nm SE 
110530Z 1106/1206 VRB05KT P6SM SCT020 FM111700 12011KT P6SM SCT025 BKN050 FM120200 11006KT P6SM SCT030 BKN050
KOPF 
41nm E 
110530Z 1106/1206 VRB05KT P6SM SCT020 FM111700 12011KT P6SM SCT025 BKN050 FM120200 12006KT P6SM SCT030 BKN050
KMIA 
42nm E 
110530Z 1106/1212 VRB05KT P6SM SCT020 FM111700 12011KT P6SM SCT025 BKN050 FM120200 12006KT P6SM SCT030 BKN050
KFXE 
47nm E 
110530Z 1106/1206 VRB05KT P6SM SCT020 FM111700 12011KT P6SM SCT025 BKN050 FM120200 12006KT P6SM SCT030 BKN050
KFLL 
48nm E 
110530Z 1106/1212 VRB05KT P6SM SCT020 FM111700 12011KT P6SM SCT025 BKN050 FM120200 12006KT P6SM SCT030 BKN050
KRSW 
49nm NW 
110541Z 1106/1206 VRB04KT P6SM SKC FM111400 15005KT P6SM FEW020 SCT250 FM111800 23009KT P6SM VCTS SCT040CB SCT250 FM120400 32006KT P6SM SCT250
NOTAMs
Click for the latest NOTAMs
NOTAMs are issued by the DoD/FAA and will open in a separate window not controlled by AirNav.

 

 
 

Would you like to see your business listed on this page?

 If your business provides an interesting product or service to pilots, flight crews, aircraft, or users of the Little Deer Airport, you should consider listing it here.  To start the listing process, click on the button below
 
Add a business
 

Other Pages about Little Deer Airport

Update a link
 
Copyright © AirNav, LLC. All rights reserved. Privacy Policy  Contact